sensor_id;sensor_type;location;lat;lon;timestamp;P1;durP1;ratioP1;P2;durP2;ratioP2
1589;SDS011;788;48.720;9.158;2022-10-16T00:01:15;3.03;;;2.70;;
1589;SDS011;788;48.720;9.158;2022-10-16T00:03:43;3.07;;;2.77;;
1589;SDS011;788;48.720;9.158;2022-10-16T00:06:11;2.33;;;2.23;;
1589;SDS011;788;48.720;9.158;2022-10-16T00:08:39;3.20;;;2.57;;
1589;SDS011;788;48.720;9.158;2022-10-16T00:11:07;2.80;;;2.30;;
1589;SDS011;788;48.720;9.158;2022-10-16T00:13:38;2.30;;;2.10;;
1589;SDS011;788;48.720;9.158;2022-10-16T00:16:07;3.50;;;2.57;;
1589;SDS011;788;48.720;9.158;2022-10-16T00:18:36;3.03;;;2.17;;
1589;SDS011;788;48.720;9.158;2022-10-16T00:21:04;2.17;;;2.03;;
1589;SDS011;788;48.720;9.158;2022-10-16T00:23:32;2.73;;;2.50;;
1589;SDS011;788;48.720;9.158;2022-10-16T00:26:01;2.90;;;2.70;;
1589;SDS011;788;48.720;9.158;2022-10-16T00:28:29;2.80;;;2.60;;
1589;SDS011;788;48.720;9.158;2022-10-16T00:30:58;2.73;;;2.43;;
1589;SDS011;788;48.720;9.158;2022-10-16T00:33:28;2.43;;;2.23;;
1589;SDS011;788;48.720;9.158;2022-10-16T00:35:57;2.50;;;2.37;;
1589;SDS011;788;48.720;9.158;2022-10-16T00:38:24;2.60;;;2.40;;
1589;SDS011;788;48.720;9.158;2022-10-16T00:40:50;3.80;;;2.50;;
1589;SDS011;788;48.720;9.158;2022-10-16T00:43:32;2.60;;;2.40;;
1589;SDS011;788;48.720;9.158;2022-10-16T00:46:03;3.40;;;3.10;;
1589;SDS011;788;48.720;9.158;2022-10-16T00:48:36;4.30;;;3.57;;
1589;SDS011;788;48.720;9.158;2022-10-16T00:51:03;3.37;;;3.17;;
1589;SDS011;788;48.720;9.158;2022-10-16T00:53:31;7.57;;;3.60;;
1589;SDS011;788;48.720;9.158;2022-10-16T00:55:58;3.30;;;3.00;;
1589;SDS011;788;48.720;9.158;2022-10-16T00:58:27;3.30;;;3.10;;
1589;SDS011;788;48.720;9.158;2022-10-16T01:00:53;3.17;;;2.40;;
1589;SDS011;788;48.720;9.158;2022-10-16T01:03:26;3.30;;;3.00;;
1589;SDS011;788;48.720;9.158;2022-10-16T01:06:01;2.67;;;2.47;;
1589;SDS011;788;48.720;9.158;2022-10-16T01:08:38;3.13;;;2.77;;
1589;SDS011;788;48.720;9.158;2022-10-16T01:11:13;2.77;;;2.50;;
1589;SDS011;788;48.720;9.158;2022-10-16T01:13:46;2.60;;;2.33;;
1589;SDS011;788;48.720;9.158;2022-10-16T01:16:21;2.70;;;2.50;;
1589;SDS011;788;48.720;9.158;2022-10-16T01:18:57;2.03;;;1.93;;
1589;SDS011;788;48.720;9.158;2022-10-16T01:21:29;7.93;;;2.67;;
1589;SDS011;788;48.720;9.158;2022-10-16T01:24:02;4.03;;;2.80;;
1589;SDS011;788;48.720;9.158;2022-10-16T01:26:39;2.13;;;1.93;;
1589;SDS011;788;48.720;9.158;2022-10-16T01:29:27;3.53;;;2.93;;
1589;SDS011;788;48.720;9.158;2022-10-16T01:31:59;3.60;;;3.30;;
1589;SDS011;788;48.720;9.158;2022-10-16T01:34:30;3.10;;;2.80;;
1589;SDS011;788;48.720;9.158;2022-10-16T01:37:01;2.70;;;2.50;;
1589;SDS011;788;48.720;9.158;2022-10-16T01:39:33;3.80;;;2.93;;
1589;SDS011;788;48.720;9.158;2022-10-16T01:42:06;3.33;;;3.13;;
1589;SDS011;788;48.720;9.158;2022-10-16T01:44:37;3.40;;;3.10;;
1589;SDS011;788;48.720;9.158;2022-10-16T01:47:05;6.53;;;3.23;;
1589;SDS011;788;48.720;9.158;2022-10-16T01:49:36;3.70;;;3.00;;
1589;SDS011;788;48.720;9.158;2022-10-16T01:52:05;3.57;;;2.90;;
1589;SDS011;788;48.720;9.158;2022-10-16T01:54:35;3.07;;;2.33;;
1589;SDS011;788;48.720;9.158;2022-10-16T01:57:07;2.97;;;2.70;;
1589;SDS011;788;48.720;9.158;2022-10-16T01:59:35;3.43;;;2.20;;
1589;SDS011;788;48.720;9.158;2022-10-16T02:02:07;6.20;;;3.00;;
1589;SDS011;788;48.720;9.158;2022-10-16T02:04:36;3.63;;;2.20;;
1589;SDS011;788;48.720;9.158;2022-10-16T02:07:09;2.83;;;2.63;;
1589;SDS011;788;48.720;9.158;2022-10-16T02:09:38;2.93;;;2.73;;
1589;SDS011;788;48.720;9.158;2022-10-16T02:12:08;3.80;;;3.40;;
1589;SDS011;788;48.720;9.158;2022-10-16T02:14:39;4.20;;;3.20;;
1589;SDS011;788;48.720;9.158;2022-10-16T02:17:09;3.27;;;2.63;;
1589;SDS011;788;48.720;9.158;2022-10-16T02:19:37;3.20;;;2.90;;
1589;SDS011;788;48.720;9.158;2022-10-16T02:22:04;3.10;;;2.90;;
1589;SDS011;788;48.720;9.158;2022-10-16T02:24:36;2.50;;;2.30;;
1589;SDS011;788;48.720;9.158;2022-10-16T02:27:11;3.30;;;3.00;;
1589;SDS011;788;48.720;9.158;2022-10-16T02:29:43;4.13;;;2.83;;
1589;SDS011;788;48.720;9.158;2022-10-16T02:32:17;3.40;;;2.97;;
1589;SDS011;788;48.720;9.158;2022-10-16T02:34:47;3.43;;;3.23;;
1589;SDS011;788;48.720;9.158;2022-10-16T02:37:15;5.20;;;3.37;;
1589;SDS011;788;48.720;9.158;2022-10-16T02:39:43;3.10;;;2.80;;
1589;SDS011;788;48.720;9.158;2022-10-16T02:42:11;3.90;;;2.60;;
1589;SDS011;788;48.720;9.158;2022-10-16T02:44:39;2.90;;;2.70;;
1589;SDS011;788;48.720;9.158;2022-10-16T02:47:06;3.00;;;2.70;;
1589;SDS011;788;48.720;9.158;2022-10-16T02:49:33;5.13;;;2.80;;
1589;SDS011;788;48.720;9.158;2022-10-16T02:51:59;3.10;;;2.90;;
1589;SDS011;788;48.720;9.158;2022-10-16T02:54:26;2.93;;;2.73;;
1589;SDS011;788;48.720;9.158;2022-10-16T02:56:53;3.10;;;2.80;;
1589;SDS011;788;48.720;9.158;2022-10-16T02:59:21;2.70;;;2.50;;
1589;SDS011;788;48.720;9.158;2022-10-16T03:01:48;3.10;;;2.90;;
1589;SDS011;788;48.720;9.158;2022-10-16T03:04:15;4.00;;;3.30;;
1589;SDS011;788;48.720;9.158;2022-10-16T03:06:42;3.27;;;2.97;;
1589;SDS011;788;48.720;9.158;2022-10-16T03:09:09;4.20;;;3.40;;
1589;SDS011;788;48.720;9.158;2022-10-16T03:11:35;3.20;;;3.00;;
1589;SDS011;788;48.720;9.158;2022-10-16T03:14:02;2.77;;;2.57;;
1589;SDS011;788;48.720;9.158;2022-10-16T03:16:30;2.97;;;2.67;;
1589;SDS011;788;48.720;9.158;2022-10-16T03:18:57;3.33;;;2.80;;
1589;SDS011;788;48.720;9.158;2022-10-16T03:21:24;2.90;;;2.70;;
1589;SDS011;788;48.720;9.158;2022-10-16T03:23:51;5.20;;;3.30;;
1589;SDS011;788;48.720;9.158;2022-10-16T03:26:18;2.70;;;2.47;;
1589;SDS011;788;48.720;9.158;2022-10-16T03:28:44;3.00;;;2.57;;
1589;SDS011;788;48.720;9.158;2022-10-16T03:31:11;3.53;;;3.23;;
1589;SDS011;788;48.720;9.158;2022-10-16T03:33:39;3.60;;;3.30;;
1589;SDS011;788;48.720;9.158;2022-10-16T03:36:06;3.57;;;3.27;;
1589;SDS011;788;48.720;9.158;2022-10-16T03:38:33;3.90;;;2.97;;
1589;SDS011;788;48.720;9.158;2022-10-16T03:41:00;2.83;;;2.53;;
1589;SDS011;788;48.720;9.158;2022-10-16T03:43:27;2.57;;;2.37;;
1589;SDS011;788;48.720;9.158;2022-10-16T03:45:53;3.00;;;2.50;;
1589;SDS011;788;48.720;9.158;2022-10-16T03:48:20;3.33;;;2.93;;
1589;SDS011;788;48.720;9.158;2022-10-16T03:50:48;2.83;;;2.73;;
1589;SDS011;788;48.720;9.158;2022-10-16T03:53:17;3.53;;;2.13;;
1589;SDS011;788;48.720;9.158;2022-10-16T03:55:44;3.17;;;2.97;;
1589;SDS011;788;48.720;9.158;2022-10-16T03:58:11;3.37;;;3.07;;
1589;SDS011;788;48.720;9.158;2022-10-16T04:00:39;2.60;;;1.93;;
1589;SDS011;788;48.720;9.158;2022-10-16T04:03:07;2.10;;;2.00;;
1589;SDS011;788;48.720;9.158;2022-10-16T04:05:34;2.60;;;1.60;;
1589;SDS011;788;48.720;9.158;2022-10-16T04:08:02;3.00;;;2.80;;
1589;SDS011;788;48.720;9.158;2022-10-16T04:10:30;2.60;;;2.40;;
1589;SDS011;788;48.720;9.158;2022-10-16T04:12:57;3.00;;;2.70;;
1589;SDS011;788;48.720;9.158;2022-10-16T04:15:24;2.30;;;2.20;;
1589;SDS011;788;48.720;9.158;2022-10-16T04:17:52;3.13;;;2.83;;
1589;SDS011;788;48.720;9.158;2022-10-16T04:20:18;2.90;;;2.60;;
1589;SDS011;788;48.720;9.158;2022-10-16T04:22:45;2.53;;;2.43;;
1589;SDS011;788;48.720;9.158;2022-10-16T04:25:13;3.23;;;3.03;;
1589;SDS011;788;48.720;9.158;2022-10-16T04:27:40;2.70;;;2.50;;
1589;SDS011;788;48.720;9.158;2022-10-16T04:30:07;2.70;;;2.10;;
1589;SDS011;788;48.720;9.158;2022-10-16T04:32:35;2.97;;;2.07;;
1589;SDS011;788;48.720;9.158;2022-10-16T04:35:01;1.80;;;1.70;;
1589;SDS011;788;48.720;9.158;2022-10-16T04:37:28;2.20;;;2.07;;
1589;SDS011;788;48.720;9.158;2022-10-16T04:39:55;3.30;;;2.67;;
1589;SDS011;788;48.720;9.158;2022-10-16T04:42:23;2.57;;;2.47;;
1589;SDS011;788;48.720;9.158;2022-10-16T04:44:53;3.03;;;2.80;;
1589;SDS011;788;48.720;9.158;2022-10-16T04:47:20;2.83;;;2.43;;
1589;SDS011;788;48.720;9.158;2022-10-16T04:49:46;3.63;;;2.30;;
1589;SDS011;788;48.720;9.158;2022-10-16T04:52:13;3.33;;;2.40;;
1589;SDS011;788;48.720;9.158;2022-10-16T04:54:40;2.80;;;2.67;;
1589;SDS011;788;48.720;9.158;2022-10-16T04:57:07;4.20;;;2.57;;
1589;SDS011;788;48.720;9.158;2022-10-16T04:59:35;3.70;;;2.30;;
1589;SDS011;788;48.720;9.158;2022-10-16T05:02:02;3.00;;;2.10;;
1589;SDS011;788;48.720;9.158;2022-10-16T05:04:29;2.83;;;2.67;;
1589;SDS011;788;48.720;9.158;2022-10-16T05:06:55;2.83;;;2.43;;
1589;SDS011;788;48.720;9.158;2022-10-16T05:09:22;2.53;;;2.43;;
1589;SDS011;788;48.720;9.158;2022-10-16T05:11:49;2.70;;;2.50;;
1589;SDS011;788;48.720;9.158;2022-10-16T05:14:16;3.00;;;2.67;;
1589;SDS011;788;48.720;9.158;2022-10-16T05:16:44;2.37;;;2.27;;
1589;SDS011;788;48.720;9.158;2022-10-16T05:19:13;2.80;;;2.57;;
1589;SDS011;788;48.720;9.158;2022-10-16T05:21:39;7.20;;;3.27;;
1589;SDS011;788;48.720;9.158;2022-10-16T05:24:06;3.50;;;3.20;;
1589;SDS011;788;48.720;9.158;2022-10-16T05:26:34;2.83;;;2.63;;
1589;SDS011;788;48.720;9.158;2022-10-16T05:29:01;2.80;;;2.60;;
1589;SDS011;788;48.720;9.158;2022-10-16T05:31:28;2.63;;;2.30;;
1589;SDS011;788;48.720;9.158;2022-10-16T05:33:58;2.97;;;2.67;;
1589;SDS011;788;48.720;9.158;2022-10-16T05:36:26;2.53;;;2.30;;
1589;SDS011;788;48.720;9.158;2022-10-16T05:38:53;2.60;;;2.40;;
1589;SDS011;788;48.720;9.158;2022-10-16T05:41:20;3.80;;;2.80;;
1589;SDS011;788;48.720;9.158;2022-10-16T05:43:48;2.20;;;2.00;;
1589;SDS011;788;48.720;9.158;2022-10-16T05:46:15;2.80;;;2.60;;
1589;SDS011;788;48.720;9.158;2022-10-16T05:48:43;3.73;;;3.00;;
1589;SDS011;788;48.720;9.158;2022-10-16T05:51:11;2.20;;;2.10;;
1589;SDS011;788;48.720;9.158;2022-10-16T05:53:40;7.03;;;2.47;;
1589;SDS011;788;48.720;9.158;2022-10-16T05:56:08;2.87;;;2.67;;
1589;SDS011;788;48.720;9.158;2022-10-16T05:58:37;3.47;;;2.47;;
1589;SDS011;788;48.720;9.158;2022-10-16T06:01:06;2.80;;;2.57;;
1589;SDS011;788;48.720;9.158;2022-10-16T06:03:33;2.00;;;1.90;;
1589;SDS011;788;48.720;9.158;2022-10-16T06:06:06;2.93;;;2.60;;
1589;SDS011;788;48.720;9.158;2022-10-16T06:08:35;3.10;;;2.40;;
1589;SDS011;788;48.720;9.158;2022-10-16T06:11:03;2.63;;;2.20;;
1589;SDS011;788;48.720;9.158;2022-10-16T06:13:30;3.30;;;3.00;;
1589;SDS011;788;48.720;9.158;2022-10-16T06:15:57;2.60;;;2.50;;
1589;SDS011;788;48.720;9.158;2022-10-16T06:18:26;2.40;;;2.20;;
1589;SDS011;788;48.720;9.158;2022-10-16T06:20:54;7.57;;;4.30;;
1589;SDS011;788;48.720;9.158;2022-10-16T06:23:21;3.77;;;3.40;;
1589;SDS011;788;48.720;9.158;2022-10-16T06:25:49;3.40;;;3.20;;
1589;SDS011;788;48.720;9.158;2022-10-16T06:28:16;3.20;;;2.93;;
1589;SDS011;788;48.720;9.158;2022-10-16T06:30:43;6.57;;;3.40;;
1589;SDS011;788;48.720;9.158;2022-10-16T06:33:10;3.27;;;2.97;;
1589;SDS011;788;48.720;9.158;2022-10-16T06:35:37;4.70;;;3.30;;
1589;SDS011;788;48.720;9.158;2022-10-16T06:38:04;3.73;;;2.73;;
1589;SDS011;788;48.720;9.158;2022-10-16T06:40:31;2.83;;;2.63;;
1589;SDS011;788;48.720;9.158;2022-10-16T06:42:59;3.20;;;3.00;;
1589;SDS011;788;48.720;9.158;2022-10-16T06:45:26;3.47;;;3.17;;
1589;SDS011;788;48.720;9.158;2022-10-16T06:47:53;4.57;;;3.10;;
1589;SDS011;788;48.720;9.158;2022-10-16T06:50:19;3.90;;;2.40;;
1589;SDS011;788;48.720;9.158;2022-10-16T06:52:46;2.37;;;2.27;;
1589;SDS011;788;48.720;9.158;2022-10-16T06:55:13;5.00;;;2.37;;
1589;SDS011;788;48.720;9.158;2022-10-16T06:57:42;6.03;;;3.20;;
1589;SDS011;788;48.720;9.158;2022-10-16T07:00:10;3.40;;;3.10;;
1589;SDS011;788;48.720;9.158;2022-10-16T07:02:38;3.30;;;2.60;;
1589;SDS011;788;48.720;9.158;2022-10-16T07:05:05;2.70;;;2.50;;
1589;SDS011;788;48.720;9.158;2022-10-16T07:07:32;3.37;;;2.60;;
1589;SDS011;788;48.720;9.158;2022-10-16T07:10:02;3.17;;;2.87;;
1589;SDS011;788;48.720;9.158;2022-10-16T07:12:29;3.57;;;3.10;;
1589;SDS011;788;48.720;9.158;2022-10-16T07:14:56;3.10;;;2.80;;
1589;SDS011;788;48.720;9.158;2022-10-16T07:17:24;3.30;;;2.47;;
1589;SDS011;788;48.720;9.158;2022-10-16T07:19:50;3.80;;;2.63;;
1589;SDS011;788;48.720;9.158;2022-10-16T07:22:18;3.57;;;2.30;;
1589;SDS011;788;48.720;9.158;2022-10-16T07:24:45;2.73;;;2.50;;
1589;SDS011;788;48.720;9.158;2022-10-16T07:27:12;3.13;;;2.23;;
1589;SDS011;788;48.720;9.158;2022-10-16T07:29:41;2.40;;;2.30;;
1589;SDS011;788;48.720;9.158;2022-10-16T07:32:08;2.43;;;2.33;;
1589;SDS011;788;48.720;9.158;2022-10-16T07:34:36;5.43;;;3.40;;
1589;SDS011;788;48.720;9.158;2022-10-16T07:37:17;2.30;;;2.10;;
1589;SDS011;788;48.720;9.158;2022-10-16T07:39:54;3.70;;;3.40;;
1589;SDS011;788;48.720;9.158;2022-10-16T07:42:20;2.90;;;2.67;;
1589;SDS011;788;48.720;9.158;2022-10-16T07:44:47;4.03;;;3.00;;
1589;SDS011;788;48.720;9.158;2022-10-16T07:47:14;3.90;;;2.30;;
1589;SDS011;788;48.720;9.158;2022-10-16T07:49:42;2.70;;;2.43;;
1589;SDS011;788;48.720;9.158;2022-10-16T07:52:09;3.17;;;2.63;;
1589;SDS011;788;48.720;9.158;2022-10-16T07:54:36;3.00;;;2.40;;
1589;SDS011;788;48.720;9.158;2022-10-16T07:57:03;4.23;;;2.90;;
1589;SDS011;788;48.720;9.158;2022-10-16T07:59:30;2.67;;;2.47;;
1589;SDS011;788;48.720;9.158;2022-10-16T08:01:56;3.60;;;2.60;;
1589;SDS011;788;48.720;9.158;2022-10-16T08:04:23;2.63;;;2.43;;
1589;SDS011;788;48.720;9.158;2022-10-16T08:06:51;2.77;;;2.57;;
1589;SDS011;788;48.720;9.158;2022-10-16T08:09:19;3.33;;;3.10;;
1589;SDS011;788;48.720;9.158;2022-10-16T08:11:46;3.57;;;2.30;;
1589;SDS011;788;48.720;9.158;2022-10-16T08:14:12;2.60;;;2.40;;
1589;SDS011;788;48.720;9.158;2022-10-16T08:16:39;2.40;;;2.10;;
1589;SDS011;788;48.720;9.158;2022-10-16T08:19:06;2.33;;;2.13;;
1589;SDS011;788;48.720;9.158;2022-10-16T08:21:33;2.70;;;2.50;;
1589;SDS011;788;48.720;9.158;2022-10-16T08:24:01;3.30;;;3.00;;
1589;SDS011;788;48.720;9.158;2022-10-16T08:26:28;3.23;;;2.50;;
1589;SDS011;788;48.720;9.158;2022-10-16T08:28:55;4.80;;;2.50;;
1589;SDS011;788;48.720;9.158;2022-10-16T08:31:22;3.50;;;2.10;;
1589;SDS011;788;48.720;9.158;2022-10-16T08:33:49;3.43;;;2.87;;
1589;SDS011;788;48.720;9.158;2022-10-16T08:36:17;3.60;;;3.17;;
1589;SDS011;788;48.720;9.158;2022-10-16T08:38:46;4.37;;;2.40;;
1589;SDS011;788;48.720;9.158;2022-10-16T08:44:46;1.67;;;1.57;;
1589;SDS011;788;48.720;9.158;2022-10-16T08:47:44;3.60;;;2.30;;
1589;SDS011;788;48.720;9.158;2022-10-16T08:50:18;2.40;;;2.20;;
1589;SDS011;788;48.720;9.158;2022-10-16T08:52:49;2.73;;;2.17;;
1589;SDS011;788;48.720;9.158;2022-10-16T08:55:28;4.43;;;2.17;;
1589;SDS011;788;48.720;9.158;2022-10-16T08:57:58;1.87;;;1.77;;
1589;SDS011;788;48.720;9.158;2022-10-16T09:00:27;2.63;;;2.43;;
1589;SDS011;788;48.720;9.158;2022-10-16T09:02:56;2.40;;;1.97;;
1589;SDS011;788;48.720;9.158;2022-10-16T09:08:28;2.50;;;2.30;;
1589;SDS011;788;48.720;9.158;2022-10-16T09:11:03;2.47;;;1.83;;
1589;SDS011;788;48.720;9.158;2022-10-16T09:13:41;2.53;;;2.23;;
1589;SDS011;788;48.720;9.158;2022-10-16T09:16:16;1.73;;;1.43;;
1589;SDS011;788;48.720;9.158;2022-10-16T09:18:51;2.17;;;1.70;;
1589;SDS011;788;48.720;9.158;2022-10-16T09:21:25;2.03;;;1.83;;
1589;SDS011;788;48.720;9.158;2022-10-16T09:23:56;2.70;;;1.73;;
1589;SDS011;788;48.720;9.158;2022-10-16T09:26:25;2.90;;;1.77;;
1589;SDS011;788;48.720;9.158;2022-10-16T09:28:52;5.20;;;2.00;;
1589;SDS011;788;48.720;9.158;2022-10-16T09:31:21;1.73;;;1.40;;
1589;SDS011;788;48.720;9.158;2022-10-16T09:33:50;1.93;;;1.83;;
1589;SDS011;788;48.720;9.158;2022-10-16T09:36:20;2.27;;;2.13;;
1589;SDS011;788;48.720;9.158;2022-10-16T09:38:49;2.30;;;2.17;;
1589;SDS011;788;48.720;9.158;2022-10-16T09:41:19;1.80;;;1.70;;
1589;SDS011;788;48.720;9.158;2022-10-16T09:43:48;1.70;;;1.50;;
1589;SDS011;788;48.720;9.158;2022-10-16T09:46:22;1.90;;;1.80;;
1589;SDS011;788;48.720;9.158;2022-10-16T09:48:53;1.77;;;1.67;;
1589;SDS011;788;48.720;9.158;2022-10-16T09:51:23;1.87;;;1.73;;
1589;SDS011;788;48.720;9.158;2022-10-16T09:53:57;2.60;;;1.43;;
1589;SDS011;788;48.720;9.158;2022-10-16T09:56:26;2.17;;;1.73;;
1589;SDS011;788;48.720;9.158;2022-10-16T09:58:54;2.20;;;1.47;;
1589;SDS011;788;48.720;9.158;2022-10-16T10:01:26;2.53;;;1.33;;
1589;SDS011;788;48.720;9.158;2022-10-16T10:03:57;1.40;;;1.40;;
1589;SDS011;788;48.720;9.158;2022-10-16T10:06:28;2.23;;;1.47;;
1589;SDS011;788;48.720;9.158;2022-10-16T10:08:59;2.53;;;2.23;;
1589;SDS011;788;48.720;9.158;2022-10-16T10:11:45;2.90;;;1.90;;
1589;SDS011;788;48.720;9.158;2022-10-16T10:14:16;7.30;;;1.73;;
1589;SDS011;788;48.720;9.158;2022-10-16T10:17:10;1.67;;;1.57;;
1589;SDS011;788;48.720;9.158;2022-10-16T10:19:40;1.60;;;1.30;;
1589;SDS011;788;48.720;9.158;2022-10-16T10:22:15;1.50;;;1.40;;
1589;SDS011;788;48.720;9.158;2022-10-16T10:24:55;4.50;;;1.30;;
1589;SDS011;788;48.720;9.158;2022-10-16T10:27:43;1.50;;;1.40;;
1589;SDS011;788;48.720;9.158;2022-10-16T10:30:29;2.30;;;1.43;;
1589;SDS011;788;48.720;9.158;2022-10-16T10:35:56;1.60;;;1.50;;
1589;SDS011;788;48.720;9.158;2022-10-16T10:38:38;1.63;;;1.30;;
1589;SDS011;788;48.720;9.158;2022-10-16T10:41:12;1.30;;;1.20;;
1589;SDS011;788;48.720;9.158;2022-10-16T10:44:01;1.03;;;1.03;;
1589;SDS011;788;48.720;9.158;2022-10-16T10:46:39;1.50;;;1.40;;
1589;SDS011;788;48.720;9.158;2022-10-16T10:49:15;2.20;;;1.43;;
1589;SDS011;788;48.720;9.158;2022-10-16T10:51:55;4.33;;;1.57;;
1589;SDS011;788;48.720;9.158;2022-10-16T10:54:28;1.37;;;1.27;;
1589;SDS011;788;48.720;9.158;2022-10-16T10:57:02;1.23;;;1.13;;
1589;SDS011;788;48.720;9.158;2022-10-16T11:02:21;3.40;;;1.40;;
1589;SDS011;788;48.720;9.158;2022-10-16T11:05:01;1.20;;;1.10;;
1589;SDS011;788;48.720;9.158;2022-10-16T11:07:49;1.30;;;1.20;;
1589;SDS011;788;48.720;9.158;2022-10-16T11:10:20;1.60;;;1.50;;
1589;SDS011;788;48.720;9.158;2022-10-16T11:12:51;1.13;;;1.03;;
1589;SDS011;788;48.720;9.158;2022-10-16T11:15:22;1.50;;;1.40;;
1589;SDS011;788;48.720;9.158;2022-10-16T11:17:53;1.50;;;1.40;;
1589;SDS011;788;48.720;9.158;2022-10-16T11:20:26;1.50;;;1.40;;
1589;SDS011;788;48.720;9.158;2022-10-16T11:22:56;1.57;;;1.40;;
1589;SDS011;788;48.720;9.158;2022-10-16T11:25:29;1.47;;;1.37;;
1589;SDS011;788;48.720;9.158;2022-10-16T11:27:59;2.37;;;1.40;;
1589;SDS011;788;48.720;9.158;2022-10-16T11:30:30;1.87;;;1.60;;
1589;SDS011;788;48.720;9.158;2022-10-16T11:33:04;1.93;;;1.83;;
1589;SDS011;788;48.720;9.158;2022-10-16T11:35:47;2.30;;;2.10;;
1589;SDS011;788;48.720;9.158;2022-10-16T11:38:20;1.97;;;1.80;;
1589;SDS011;788;48.720;9.158;2022-10-16T11:40:53;2.60;;;2.07;;
1589;SDS011;788;48.720;9.158;2022-10-16T11:43:25;1.70;;;1.60;;
1589;SDS011;788;48.720;9.158;2022-10-16T11:45:57;1.90;;;1.80;;
1589;SDS011;788;48.720;9.158;2022-10-16T11:48:30;1.50;;;1.40;;
1589;SDS011;788;48.720;9.158;2022-10-16T11:51:05;3.20;;;2.00;;
1589;SDS011;788;48.720;9.158;2022-10-16T11:53:44;2.23;;;1.50;;
1589;SDS011;788;48.720;9.158;2022-10-16T11:56:15;1.70;;;1.57;;
1589;SDS011;788;48.720;9.158;2022-10-16T11:58:47;2.43;;;1.30;;
1589;SDS011;788;48.720;9.158;2022-10-16T12:01:22;1.67;;;1.57;;
1589;SDS011;788;48.720;9.158;2022-10-16T12:03:58;1.70;;;1.60;;
1589;SDS011;788;48.720;9.158;2022-10-16T12:06:34;2.70;;;2.30;;
1589;SDS011;788;48.720;9.158;2022-10-16T12:09:09;1.40;;;1.30;;
1589;SDS011;788;48.720;9.158;2022-10-16T12:11:44;1.60;;;1.50;;
1589;SDS011;788;48.720;9.158;2022-10-16T12:14:21;1.50;;;1.40;;
1589;SDS011;788;48.720;9.158;2022-10-16T12:17:00;5.57;;;1.53;;
1589;SDS011;788;48.720;9.158;2022-10-16T12:19:30;2.07;;;1.80;;
1589;SDS011;788;48.720;9.158;2022-10-16T12:21:59;1.13;;;1.10;;
1589;SDS011;788;48.720;9.158;2022-10-16T12:24:32;1.30;;;1.30;;
1589;SDS011;788;48.720;9.158;2022-10-16T12:27:01;1.57;;;1.37;;
1589;SDS011;788;48.720;9.158;2022-10-16T12:29:32;3.33;;;1.47;;
1589;SDS011;788;48.720;9.158;2022-10-16T12:32:01;1.77;;;1.30;;
1589;SDS011;788;48.720;9.158;2022-10-16T12:34:31;1.63;;;1.53;;
1589;SDS011;788;48.720;9.158;2022-10-16T12:37:14;1.60;;;1.50;;
1589;SDS011;788;48.720;9.158;2022-10-16T12:39:47;1.37;;;1.30;;
1589;SDS011;788;48.720;9.158;2022-10-16T12:42:22;3.03;;;1.20;;
1589;SDS011;788;48.720;9.158;2022-10-16T12:44:58;1.63;;;1.53;;
1589;SDS011;788;48.720;9.158;2022-10-16T12:47:35;1.60;;;1.23;;
1589;SDS011;788;48.720;9.158;2022-10-16T12:50:21;1.60;;;1.50;;
1589;SDS011;788;48.720;9.158;2022-10-16T12:52:52;2.37;;;1.23;;
1589;SDS011;788;48.720;9.158;2022-10-16T12:55:19;1.67;;;1.30;;
1589;SDS011;788;48.720;9.158;2022-10-16T12:57:52;1.77;;;1.67;;
1589;SDS011;788;48.720;9.158;2022-10-16T13:00:45;1.10;;;1.10;;
1589;SDS011;788;48.720;9.158;2022-10-16T13:03:30;1.57;;;1.50;;
1589;SDS011;788;48.720;9.158;2022-10-16T13:06:13;1.97;;;1.60;;
1589;SDS011;788;48.720;9.158;2022-10-16T13:09:04;1.20;;;1.20;;
1589;SDS011;788;48.720;9.158;2022-10-16T13:11:45;2.20;;;1.60;;
1589;SDS011;788;48.720;9.158;2022-10-16T13:14:35;1.50;;;1.40;;
1589;SDS011;788;48.720;9.158;2022-10-16T13:17:21;1.90;;;1.80;;
1589;SDS011;788;48.720;9.158;2022-10-16T13:19:55;1.60;;;1.50;;
1589;SDS011;788;48.720;9.158;2022-10-16T13:22:29;1.53;;;1.43;;
1589;SDS011;788;48.720;9.158;2022-10-16T13:25:05;1.37;;;1.23;;
1589;SDS011;788;48.720;9.158;2022-10-16T13:27:50;2.43;;;1.63;;
1589;SDS011;788;48.720;9.158;2022-10-16T13:30:21;2.03;;;1.80;;
1589;SDS011;788;48.720;9.158;2022-10-16T13:32:51;1.67;;;1.50;;
1589;SDS011;788;48.720;9.158;2022-10-16T13:35:24;1.60;;;1.50;;
1589;SDS011;788;48.720;9.158;2022-10-16T13:38:02;2.50;;;1.60;;
1589;SDS011;788;48.720;9.158;2022-10-16T13:40:31;1.77;;;1.50;;
1589;SDS011;788;48.720;9.158;2022-10-16T13:42:59;2.30;;;1.30;;
1589;SDS011;788;48.720;9.158;2022-10-16T13:45:26;2.37;;;1.90;;
1589;SDS011;788;48.720;9.158;2022-10-16T13:48:01;1.70;;;1.33;;
1589;SDS011;788;48.720;9.158;2022-10-16T13:50:28;2.43;;;1.47;;
1589;SDS011;788;48.720;9.158;2022-10-16T13:53:02;1.50;;;1.40;;
1589;SDS011;788;48.720;9.158;2022-10-16T13:55:31;1.83;;;1.70;;
1589;SDS011;788;48.720;9.158;2022-10-16T13:58:05;2.30;;;2.17;;
1589;SDS011;788;48.720;9.158;2022-10-16T14:00:33;2.20;;;1.53;;
1589;SDS011;788;48.720;9.158;2022-10-16T14:03:01;1.50;;;1.50;;
1589;SDS011;788;48.720;9.158;2022-10-16T14:05:30;1.93;;;1.47;;
1589;SDS011;788;48.720;9.158;2022-10-16T14:07:57;1.50;;;1.40;;
1589;SDS011;788;48.720;9.158;2022-10-16T14:10:25;1.70;;;1.60;;
1589;SDS011;788;48.720;9.158;2022-10-16T14:12:58;2.73;;;2.53;;
1589;SDS011;788;48.720;9.158;2022-10-16T14:15:27;2.10;;;2.00;;
1589;SDS011;788;48.720;9.158;2022-10-16T14:17:56;1.73;;;1.63;;
1589;SDS011;788;48.720;9.158;2022-10-16T14:20:25;3.00;;;2.40;;
1589;SDS011;788;48.720;9.158;2022-10-16T14:22:58;2.20;;;1.80;;
1589;SDS011;788;48.720;9.158;2022-10-16T14:25:27;2.80;;;1.93;;
1589;SDS011;788;48.720;9.158;2022-10-16T14:28:00;2.37;;;2.27;;
1589;SDS011;788;48.720;9.158;2022-10-16T14:30:28;2.50;;;1.90;;
1589;SDS011;788;48.720;9.158;2022-10-16T14:32:57;1.60;;;1.50;;
1589;SDS011;788;48.720;9.158;2022-10-16T14:35:26;2.97;;;2.20;;
1589;SDS011;788;48.720;9.158;2022-10-16T14:37:56;11.30;;;2.80;;
1589;SDS011;788;48.720;9.158;2022-10-16T14:40:25;2.63;;;2.43;;
1589;SDS011;788;48.720;9.158;2022-10-16T14:42:53;1.97;;;1.50;;
1589;SDS011;788;48.720;9.158;2022-10-16T14:45:23;2.10;;;1.80;;
1589;SDS011;788;48.720;9.158;2022-10-16T14:47:54;5.20;;;1.80;;
1589;SDS011;788;48.720;9.158;2022-10-16T14:50:22;1.43;;;1.33;;
1589;SDS011;788;48.720;9.158;2022-10-16T14:52:49;2.67;;;2.00;;
1589;SDS011;788;48.720;9.158;2022-10-16T14:55:16;2.93;;;2.50;;
1589;SDS011;788;48.720;9.158;2022-10-16T14:57:43;2.30;;;1.90;;
1589;SDS011;788;48.720;9.158;2022-10-16T15:00:18;2.27;;;2.10;;
1589;SDS011;788;48.720;9.158;2022-10-16T15:02:48;2.07;;;1.93;;
1589;SDS011;788;48.720;9.158;2022-10-16T15:05:17;2.40;;;2.00;;
1589;SDS011;788;48.720;9.158;2022-10-16T15:07:45;1.80;;;1.70;;
1589;SDS011;788;48.720;9.158;2022-10-16T15:10:13;8.17;;;3.63;;
1589;SDS011;788;48.720;9.158;2022-10-16T15:12:40;2.53;;;2.43;;
1589;SDS011;788;48.720;9.158;2022-10-16T15:15:21;3.97;;;2.63;;
1589;SDS011;788;48.720;9.158;2022-10-16T15:17:55;2.30;;;2.20;;
1589;SDS011;788;48.720;9.158;2022-10-16T15:20:25;2.50;;;2.30;;
1589;SDS011;788;48.720;9.158;2022-10-16T15:22:53;2.77;;;2.57;;
1589;SDS011;788;48.720;9.158;2022-10-16T15:28:04;4.30;;;2.40;;
1589;SDS011;788;48.720;9.158;2022-10-16T15:30:32;3.03;;;2.70;;
1589;SDS011;788;48.720;9.158;2022-10-16T15:33:01;3.77;;;2.47;;
1589;SDS011;788;48.720;9.158;2022-10-16T15:35:30;3.67;;;2.70;;
1589;SDS011;788;48.720;9.158;2022-10-16T15:37:57;2.90;;;2.40;;
1589;SDS011;788;48.720;9.158;2022-10-16T15:40:24;3.27;;;2.67;;
1589;SDS011;788;48.720;9.158;2022-10-16T15:42:51;2.57;;;2.37;;
1589;SDS011;788;48.720;9.158;2022-10-16T15:45:17;4.00;;;2.53;;
1589;SDS011;788;48.720;9.158;2022-10-16T15:47:45;3.37;;;2.60;;
1589;SDS011;788;48.720;9.158;2022-10-16T15:50:14;2.40;;;2.20;;
1589;SDS011;788;48.720;9.158;2022-10-16T15:52:41;2.80;;;2.60;;
1589;SDS011;788;48.720;9.158;2022-10-16T15:55:09;3.77;;;2.87;;
1589;SDS011;788;48.720;9.158;2022-10-16T15:57:44;3.17;;;2.50;;
1589;SDS011;788;48.720;9.158;2022-10-16T16:00:13;3.67;;;2.90;;
1589;SDS011;788;48.720;9.158;2022-10-16T16:02:41;3.30;;;3.00;;
1589;SDS011;788;48.720;9.158;2022-10-16T16:05:08;4.67;;;2.90;;